createdAt,value
2022-12-08T00:01:14.327Z,94557.69
2022-12-08T00:02:16.212Z,94553.22
2022-12-08T00:03:18.025Z,94556.19
2022-12-08T00:04:19.825Z,94560.09
2022-12-08T00:05:39.963Z,94560.09
2022-12-08T00:07:02.353Z,94559.34
2022-12-08T00:08:22.482Z,94567.00
2022-12-08T00:09:39.429Z,94573.53
2022-12-08T00:10:49.615Z,94571.66
2022-12-08T00:12:06.239Z,94565.88
2022-12-08T00:13:07.769Z,94571.28
2022-12-08T00:14:09.347Z,94564.94
2022-12-08T00:15:10.921Z,94570.91
2022-12-08T00:16:12.722Z,94578.00
2022-12-08T00:17:16.445Z,94582.47
2022-12-08T00:18:17.979Z,94588.25
2022-12-08T00:19:19.685Z,94577.25
2022-12-08T00:20:21.252Z,94589.22
2022-12-08T00:21:22.847Z,94581.34
2022-12-08T00:22:24.466Z,94583.63
2022-12-08T00:23:26.775Z,94592.00
2022-12-08T00:24:35.880Z,94588.44
2022-12-08T00:25:37.499Z,94591.22
2022-12-08T00:26:39.156Z,94588.44
2022-12-08T00:27:40.745Z,94579.88
2022-12-08T00:28:42.334Z,94579.88
2022-12-08T00:29:45.582Z,94590.31
2022-12-08T00:30:47.191Z,94595.16
2022-12-08T00:31:48.922Z,94603.56
2022-12-08T00:32:50.585Z,94598.50
2022-12-08T00:33:52.156Z,94589.56
2022-12-08T00:34:53.713Z,94594.97
2022-12-08T00:35:55.373Z,94600.56
2022-12-08T00:36:56.967Z,94591.97
2022-12-08T00:38:00.968Z,94588.44
2022-12-08T00:39:02.865Z,94579.28
2022-12-08T00:40:05.209Z,94590.47
2022-12-08T00:41:16.050Z,94592.34
2022-12-08T00:42:17.703Z,94598.84
2022-12-08T00:43:19.387Z,94602.44
2022-12-08T00:44:21.025Z,94601.47
2022-12-08T00:45:23.029Z,94588.97
2022-12-08T00:46:24.710Z,94590.28
2022-12-08T00:47:26.306Z,94591.03
2022-12-08T00:48:27.883Z,94592.88
2022-12-08T00:49:29.449Z,94588.59
2022-12-08T00:50:31.023Z,94598.47
2022-12-08T00:51:32.999Z,94605.59
2022-12-08T00:52:34.624Z,94594.19
2022-12-08T00:53:36.243Z,94591.41
2022-12-08T00:54:37.831Z,94591.22
2022-12-08T00:55:39.417Z,94595.50
2022-12-08T00:56:41.008Z,94599.59
2022-12-08T00:57:42.567Z,94596.81
2022-12-08T00:58:44.157Z,94588.44
2022-12-08T00:59:45.693Z,94589.91
2022-12-08T01:00:47.365Z,94591.00
2022-12-08T01:01:49.320Z,94586.91
2022-12-08T01:02:51.041Z,94588.97
2022-12-08T01:03:53.409Z,94585.22
2022-12-08T01:04:55.031Z,94583.94
2022-12-08T01:05:56.609Z,94585.44
2022-12-08T01:06:58.193Z,94579.09
2022-12-08T01:07:59.764Z,94577.78
2022-12-08T01:09:02.785Z,94586.16
2022-12-08T01:10:05.193Z,94583.19
2022-12-08T01:11:10.515Z,94592.31
2022-12-08T01:12:12.058Z,94585.22
2022-12-08T01:13:13.660Z,94585.44
2022-12-08T01:14:15.551Z,94577.59
2022-12-08T01:15:17.190Z,94582.41
2022-12-08T01:16:20.611Z,94589.53
2022-12-08T01:17:22.398Z,94593.59
2022-12-08T01:18:23.990Z,94596.22
2022-12-08T01:19:25.750Z,94586.53
2022-12-08T01:20:28.027Z,94590.81
2022-12-08T01:21:29.957Z,94592.13
2022-12-08T01:22:33.354Z,94595.13
2022-12-08T01:23:35.143Z,94588.59
2022-12-08T01:24:36.711Z,94586.53
2022-12-08T01:25:38.311Z,94585.44
2022-12-08T01:26:40.378Z,94586.53
2022-12-08T01:27:42.016Z,94588.00
2022-12-08T01:28:43.890Z,94588.00
2022-12-08T01:29:45.446Z,94586.53
2022-12-08T01:30:47.034Z,94573.84
2022-12-08T01:31:48.671Z,94575.34
2022-12-08T01:32:50.261Z,94576.84
2022-12-08T01:33:51.902Z,94576.84
2022-12-08T01:34:53.449Z,94578.34
2022-12-08T01:35:55.572Z,94576.09
2022-12-08T01:36:57.122Z,94575.34
2022-12-08T01:37:58.670Z,94576.84
2022-12-08T01:39:02.130Z,94571.63
2022-12-08T01:40:04.250Z,94573.63
2022-12-08T01:41:06.089Z,94575.16
2022-12-08T01:42:19.957Z,94584.63
2022-12-08T01:43:21.624Z,94567.53
2022-12-08T01:44:43.103Z,94559.66
2022-12-08T01:45:44.835Z,94551.50
2022-12-08T01:46:49.616Z,94562.69
2022-12-08T01:48:06.147Z,94563.00
2022-12-08T01:49:13.504Z,94560.44
2022-12-08T01:50:17.256Z,94558.91
2022-12-08T01:51:19.915Z,94555.59
2022-12-08T01:52:35.611Z,94557.97
2022-12-08T01:53:37.771Z,94558.41
2022-12-08T01:55:03.212Z,94559.25
2022-12-08T01:56:11.612Z,94555.59
2022-12-08T01:57:44.821Z,94556.69
2022-12-08T01:58:52.903Z,94558.41
2022-12-08T02:00:02.805Z,94552.81
2022-12-08T02:01:05.179Z,94548.69
2022-12-08T02:02:08.013Z,94541.63
2022-12-08T02:03:18.620Z,94553.88
2022-12-08T02:04:20.183Z,94556.84
2022-12-08T02:05:27.044Z,94544.19
2022-12-08T02:06:33.730Z,94557.41
2022-12-08T02:07:36.151Z,94553.53
2022-12-08T02:08:40.519Z,94555.38
2022-12-08T02:09:42.907Z,94557.66
2022-12-08T02:10:44.541Z,94554.84
2022-12-08T02:11:46.383Z,94556.34
2022-12-08T02:12:50.623Z,94565.25
2022-12-08T02:13:54.489Z,94561.19
2022-12-08T02:14:58.416Z,94556.69
2022-12-08T02:16:28.537Z,94557.25
2022-12-08T02:17:42.566Z,94554.06
2022-12-08T02:19:30.750Z,94550.53
2022-12-08T02:20:47.480Z,94545.66
2022-12-08T02:22:06.644Z,94544.19
2022-12-08T02:23:24.142Z,94547.72
2022-12-08T02:24:33.918Z,94540.31
2022-12-08T02:26:17.311Z,94553.13
2022-12-08T02:27:43.097Z,94549.59
2022-12-08T02:29:02.579Z,94565.25
2022-12-08T02:30:17.584Z,94556.47
2022-12-08T02:32:00.722Z,94563.38
2022-12-08T02:33:17.524Z,94562.69
2022-12-08T02:34:38.976Z,94546.59
2022-12-08T02:35:56.945Z,94546.97
2022-12-08T02:37:11.514Z,94556.28
2022-12-08T02:38:35.036Z,94533.94
2022-12-08T02:39:48.388Z,94542.50
2022-12-08T02:40:59.069Z,94545.13
2022-12-08T02:42:21.878Z,94547.69
2022-12-08T02:43:35.778Z,94543.63
2022-12-08T02:44:55.431Z,94535.97
2022-12-08T02:46:05.539Z,94539.53
2022-12-08T02:47:19.239Z,94543.63
2022-12-08T02:48:21.096Z,94543.25
2022-12-08T02:49:28.894Z,94540.25
2022-12-08T02:50:30.405Z,94545.66
2022-12-08T02:51:32.075Z,94545.66
2022-12-08T02:52:33.576Z,94544.19
2022-12-08T02:53:36.444Z,94544.19
2022-12-08T02:54:41.967Z,94538.41
2022-12-08T02:56:18.309Z,94525.53
2022-12-08T02:57:37.446Z,94532.09
2022-12-08T02:59:15.696Z,94535.41
2022-12-08T03:00:20.435Z,94529.13
2022-12-08T03:01:50.455Z,94539.69
2022-12-08T03:03:04.314Z,94547.72
2022-12-08T03:04:34.303Z,94546.59
2022-12-08T03:05:56.018Z,94538.09
2022-12-08T03:07:27.866Z,94535.97
2022-12-08T03:08:44.820Z,94534.31
2022-12-08T03:10:09.363Z,94535.41
2022-12-08T03:11:15.016Z,94545.50
2022-12-08T03:12:23.839Z,94536.91
2022-12-08T03:13:45.730Z,94536.16
2022-12-08T03:14:52.755Z,94531.50
2022-12-08T03:15:55.974Z,94538.81
2022-12-08T03:16:59.602Z,94538.81
2022-12-08T03:18:01.241Z,94538.09
2022-12-08T03:19:21.481Z,94536.03
2022-12-08T03:20:25.708Z,94537.28
2022-12-08T03:21:27.527Z,94530.22
2022-12-08T03:22:29.391Z,94533.00
2022-12-08T03:23:31.481Z,94531.69
2022-12-08T03:24:36.900Z,94533.75
2022-12-08T03:25:44.907Z,94528.91
2022-12-08T03:26:51.870Z,94540.31
2022-12-08T03:27:54.151Z,94533.97
2022-12-08T03:28:56.378Z,94533.75
2022-12-08T03:30:00.359Z,94534.72
2022-12-08T03:31:07.646Z,94542.88
2022-12-08T03:32:20.213Z,94540.88
2022-12-08T03:33:35.689Z,94542.13
2022-12-08T03:34:40.238Z,94537.69
2022-12-08T03:35:43.192Z,94531.94
2022-12-08T03:36:45.922Z,94533.97
2022-12-08T03:37:47.481Z,94534.72
2022-12-08T03:38:52.993Z,94537.28
2022-12-08T03:39:54.985Z,94539.00
2022-12-08T03:41:28.886Z,94534.72
2022-12-08T03:42:30.524Z,94537.69
2022-12-08T03:43:32.159Z,94536.94
2022-12-08T03:44:33.713Z,94535.84
2022-12-08T03:45:35.256Z,94549.28
2022-12-08T03:46:36.944Z,94543.69
2022-12-08T03:47:38.508Z,94544.97
2022-12-08T03:48:40.480Z,94543.69
2022-12-08T03:49:42.059Z,94544.44
2022-12-08T03:50:43.668Z,94542.19
2022-12-08T03:51:45.350Z,94542.19
2022-12-08T03:52:47.024Z,94545.19
2022-12-08T03:53:49.428Z,94538.09
2022-12-08T03:54:51.008Z,94540.91
2022-12-08T03:55:53.847Z,94543.50
2022-12-08T03:56:55.446Z,94546.28
2022-12-08T03:57:56.978Z,94548.34
2022-12-08T03:58:59.066Z,94548.88
2022-12-08T04:00:00.777Z,94545.91
2022-12-08T04:01:02.360Z,94551.50
2022-12-08T04:02:04.184Z,94547.38
2022-12-08T04:03:06.440Z,94551.50
2022-12-08T04:04:08.062Z,94548.69
2022-12-08T04:05:09.819Z,94550.75
2022-12-08T04:06:11.474Z,94554.06
2022-12-08T04:07:13.097Z,94555.59
2022-12-08T04:08:14.718Z,94559.66
2022-12-08T04:09:16.369Z,94558.41
2022-12-08T04:10:17.959Z,94559.66
2022-12-08T04:11:20.275Z,94561.53
2022-12-08T04:12:21.898Z,94569.34
2022-12-08T04:13:23.839Z,94559.47
2022-12-08T04:14:25.389Z,94551.81
2022-12-08T04:15:27.022Z,94553.13
2022-12-08T04:16:28.815Z,94559.47
2022-12-08T04:17:30.548Z,94557.97
2022-12-08T04:18:32.991Z,94554.44
2022-12-08T04:19:34.555Z,94557.78
2022-12-08T04:20:40.095Z,94562.06
2022-12-08T04:21:41.633Z,94564.84
2022-12-08T04:22:43.166Z,94554.44
2022-12-08T04:23:46.191Z,94557.78
2022-12-08T04:24:47.706Z,94548.09
2022-12-08T04:25:50.749Z,94549.41
2022-12-08T04:26:52.296Z,94549.41
2022-12-08T04:27:53.879Z,94556.47
2022-12-08T04:28:55.469Z,94553.69
2022-12-08T04:29:57.033Z,94558.53
2022-12-08T04:30:58.733Z,94552.19
2022-12-08T04:32:00.457Z,94559.09
2022-12-08T04:33:01.997Z,94557.59
2022-12-08T04:34:04.051Z,94556.09
2022-12-08T04:35:05.946Z,94553.28
2022-12-08T04:36:08.325Z,94551.81
2022-12-08T04:37:09.869Z,94551.81
2022-12-08T04:38:11.638Z,94553.28
2022-12-08T04:39:13.211Z,94557.41
2022-12-08T04:40:15.359Z,94555.34
2022-12-08T04:41:17.004Z,94552.56
2022-12-08T04:42:18.665Z,94558.13
2022-12-08T04:43:20.479Z,94560.19
2022-12-08T04:44:22.053Z,94558.13
2022-12-08T04:45:23.716Z,94553.28
2022-12-08T04:46:25.446Z,94552.56
2022-12-08T04:47:27.050Z,94550.31
2022-12-08T04:48:28.676Z,94553.13
2022-12-08T04:49:30.440Z,94555.16
2022-12-08T04:50:32.058Z,94553.13
2022-12-08T04:51:33.635Z,94551.41
2022-12-08T04:52:35.429Z,94558.50
2022-12-08T04:53:38.385Z,94557.22
2022-12-08T04:54:42.458Z,94557.75
2022-12-08T04:55:45.196Z,94570.41
2022-12-08T04:56:46.746Z,94566.88
2022-12-08T04:57:48.321Z,94569.69
2022-12-08T04:58:49.873Z,94568.94
2022-12-08T04:59:51.448Z,94566.88
2022-12-08T05:00:53.160Z,94567.63
2022-12-08T05:01:55.072Z,94568.19
2022-12-08T05:02:56.817Z,94562.59
2022-12-08T05:03:58.409Z,94561.28
2022-12-08T05:05:00.049Z,94556.44
2022-12-08T05:06:02.485Z,94571.00
2022-12-08T05:07:04.177Z,94558.50
2022-12-08T05:08:06.242Z,94571.00
2022-12-08T05:09:07.852Z,94563.91
2022-12-08T05:10:09.625Z,94571.00
2022-12-08T05:11:12.507Z,94571.72
2022-12-08T05:12:14.056Z,94582.16
2022-12-08T05:13:15.618Z,94575.09
2022-12-08T05:14:19.055Z,94584.97
2022-12-08T05:15:20.667Z,94578.63
2022-12-08T05:16:22.297Z,94579.38
2022-12-08T05:17:23.920Z,94577.16
2022-12-08T05:18:25.473Z,94583.66
2022-12-08T05:19:27.050Z,94577.88
2022-12-08T05:20:28.619Z,94579.38
2022-12-08T05:21:30.350Z,94569.50
2022-12-08T05:22:31.947Z,94579.16
2022-12-08T05:23:33.531Z,94581.97
2022-12-08T05:24:35.248Z,94581.97
2022-12-08T05:25:36.825Z,94581.22
2022-12-08T05:26:38.479Z,94584.22
2022-12-08T05:27:40.060Z,94591.84
2022-12-08T05:28:43.038Z,94582.16
2022-12-08T05:29:45.281Z,94594.66
2022-12-08T05:30:47.158Z,94590.34
2022-12-08T05:31:48.980Z,94596.13
2022-12-08T05:32:50.585Z,94580.69
2022-12-08T05:33:52.665Z,94575.63
2022-12-08T05:34:54.264Z,94593.13
2022-12-08T05:35:55.952Z,94590.34
2022-12-08T05:36:57.557Z,94598.72
2022-12-08T05:37:59.141Z,94598.72
2022-12-08T05:39:00.681Z,94602.47
2022-12-08T05:40:02.543Z,94601.72
2022-12-08T05:41:06.450Z,94604.31
2022-12-08T05:42:08.071Z,94605.84
2022-12-08T05:43:11.062Z,94603.56
2022-12-08T05:44:12.593Z,94604.31
2022-12-08T05:45:14.178Z,94611.97
2022-12-08T05:46:16.576Z,94603.56
2022-12-08T05:47:18.232Z,94602.84
2022-12-08T05:48:19.851Z,94604.31
2022-12-08T05:49:21.470Z,94609.91
2022-12-08T05:50:22.993Z,94612.69
2022-12-08T05:51:24.757Z,94605.63
2022-12-08T05:52:26.317Z,94598.72
2022-12-08T05:53:28.293Z,94595.19
2022-12-08T05:54:30.376Z,94602.84
2022-12-08T05:55:31.970Z,94600.25
2022-12-08T05:56:33.574Z,94597.25
2022-12-08T05:57:35.691Z,94606.94
2022-12-08T05:58:37.269Z,94600.59
2022-12-08T05:59:39.522Z,94598.34
2022-12-08T06:00:41.649Z,94607.69
2022-12-08T06:01:43.260Z,94609.72
2022-12-08T06:02:44.967Z,94609.91
2022-12-08T06:03:46.598Z,94608.41
2022-12-08T06:04:48.161Z,94605.84
2022-12-08T06:05:49.785Z,94614.00
2022-12-08T06:06:51.332Z,94617.00
2022-12-08T06:07:53.658Z,94612.91
2022-12-08T06:08:55.366Z,94607.31
2022-12-08T06:09:56.949Z,94622.59
2022-12-08T06:10:58.733Z,94618.50
2022-12-08T06:12:01.776Z,94617.19
2022-12-08T06:13:03.365Z,94623.34
2022-12-08T06:14:05.173Z,94624.09
2022-12-08T06:15:07.281Z,94624.09
2022-12-08T06:16:08.923Z,94620.00
2022-12-08T06:17:10.645Z,94622.78
2022-12-08T06:18:12.350Z,94621.50
2022-12-08T06:19:13.882Z,94620.72
2022-12-08T06:20:15.522Z,94615.91
2022-12-08T06:21:17.946Z,94620.19
2022-12-08T06:22:19.704Z,94625.97
2022-12-08T06:23:21.355Z,94627.28
2022-12-08T06:24:23.008Z,94626.72
2022-12-08T06:25:25.262Z,94625.44
2022-12-08T06:26:26.943Z,94629.72
2022-12-08T06:27:28.553Z,94626.16
2022-12-08T06:28:31.596Z,94628.97
2022-12-08T06:29:33.258Z,94619.28
2022-12-08T06:30:35.451Z,94630.66
2022-12-08T06:31:37.081Z,94628.63
2022-12-08T06:32:38.765Z,94629.16
2022-12-08T06:33:40.326Z,94619.47
2022-12-08T06:34:41.876Z,94626.56
2022-12-08T06:35:43.453Z,94618.16
2022-12-08T06:36:45.033Z,94616.88
2022-12-08T06:37:46.554Z,94618.16
2022-12-08T06:38:48.985Z,94620.75
2022-12-08T06:39:51.737Z,94628.63
2022-12-08T06:40:57.937Z,94626.34
2022-12-08T06:42:18.273Z,94620.41
2022-12-08T06:43:19.852Z,94628.03
2022-12-08T06:44:21.433Z,94626.75
2022-12-08T06:45:23.004Z,94619.66
2022-12-08T06:46:24.821Z,94620.41
2022-12-08T06:47:26.608Z,94611.50
2022-12-08T06:48:28.209Z,94604.78
2022-12-08T06:49:29.770Z,94607.03
2022-12-08T06:50:32.606Z,94605.00
2022-12-08T06:51:34.340Z,94613.38
2022-12-08T06:52:43.146Z,94608.53
2022-12-08T06:53:47.673Z,94604.44
2022-12-08T06:54:49.266Z,94614.13
2022-12-08T06:56:01.072Z,94616.38
2022-12-08T06:57:02.699Z,94609.28
2022-12-08T06:58:04.460Z,94609.28
2022-12-08T06:59:05.994Z,94608.19
2022-12-08T07:00:08.496Z,94609.66
2022-12-08T07:01:13.015Z,94615.47
2022-12-08T07:02:14.685Z,94609.31
2022-12-08T07:03:16.414Z,94612.31
2022-12-08T07:04:18.517Z,94620.13
2022-12-08T07:05:20.111Z,94620.13
2022-12-08T07:06:24.507Z,94622.38
2022-12-08T07:07:26.084Z,94625.34
2022-12-08T07:08:27.712Z,94627.41
2022-12-08T07:09:29.360Z,94633.19
2022-12-08T07:10:31.340Z,94636.75
2022-12-08T07:11:33.006Z,94636.19
2022-12-08T07:12:34.621Z,94634.69
2022-12-08T07:13:36.204Z,94634.88
2022-12-08T07:14:37.834Z,94637.88
2022-12-08T07:15:39.404Z,94642.16
2022-12-08T07:16:41.133Z,94642.38
2022-12-08T07:17:42.717Z,94638.25
2022-12-08T07:18:44.440Z,94642.53
2022-12-08T07:19:46.025Z,94644.03
2022-12-08T07:20:47.585Z,94646.81
2022-12-08T07:21:49.172Z,94644.22
2022-12-08T07:22:52.618Z,94650.41
2022-12-08T07:23:57.634Z,94653.38
2022-12-08T07:24:59.563Z,94652.81
2022-12-08T07:26:06.120Z,94653.00
2022-12-08T07:27:07.713Z,94666.03
2022-12-08T07:28:12.519Z,94672.00
2022-12-08T07:29:14.201Z,94666.03
2022-12-08T07:30:15.883Z,94668.66
2022-12-08T07:31:24.217Z,94667.94
2022-12-08T07:32:25.891Z,94663.81
2022-12-08T07:33:28.301Z,94673.69
2022-12-08T07:34:29.920Z,94668.66
2022-12-08T07:35:34.210Z,94677.81
2022-12-08T07:36:36.514Z,94674.25
2022-12-08T07:37:38.674Z,94670.72
2022-12-08T07:38:40.584Z,94674.78
2022-12-08T07:39:43.023Z,94669.19
2022-12-08T07:40:44.627Z,94661.59
2022-12-08T07:41:46.189Z,94667.94
2022-12-08T07:42:47.769Z,94674.63
2022-12-08T07:43:49.597Z,94669.03
2022-12-08T07:44:51.415Z,94667.72
2022-12-08T07:45:53.142Z,94666.22
2022-12-08T07:46:54.801Z,94664.75
2022-12-08T07:47:56.433Z,94661.94
2022-12-08T07:48:58.840Z,94664.19
2022-12-08T07:50:00.361Z,94666.97
2022-12-08T07:51:03.677Z,94662.88
2022-12-08T07:52:05.363Z,94672.00
2022-12-08T07:53:07.543Z,94666.41
2022-12-08T07:54:12.658Z,94659.16
2022-12-08T07:55:14.240Z,94663.44
2022-12-08T07:56:15.857Z,94663.44
2022-12-08T07:57:17.508Z,94662.13
2022-12-08T07:58:19.131Z,94654.47
2022-12-08T07:59:20.712Z,94662.13
2022-12-08T08:00:22.435Z,94657.84
2022-12-08T08:01:27.269Z,94656.88
2022-12-08T08:02:28.994Z,94656.34
2022-12-08T08:03:30.916Z,94657.63
2022-12-08T08:04:32.613Z,94659.69
2022-12-08T08:05:34.338Z,94675.72
2022-12-08T08:06:37.975Z,94665.63
2022-12-08T08:07:43.178Z,94661.16
2022-12-08T08:08:45.315Z,94651.09
2022-12-08T08:09:46.887Z,94653.50
2022-12-08T08:10:48.530Z,94652.00
2022-12-08T08:12:14.281Z,94663.00
2022-12-08T08:13:12.045Z,94656.09
2022-12-08T08:14:13.657Z,94656.44
2022-12-08T08:15:15.316Z,94659.25
2022-12-08T08:16:17.778Z,94652.91
2022-12-08T08:17:19.621Z,94652.91
2022-12-08T08:18:21.736Z,94650.69
2022-12-08T08:19:23.281Z,94654.00
2022-12-08T08:20:24.928Z,94658.13
2022-12-08T08:21:45.111Z,94651.78
2022-12-08T08:22:49.074Z,94658.13
2022-12-08T08:23:50.665Z,94657.91
2022-12-08T08:24:52.810Z,94673.41
2022-12-08T08:25:54.762Z,94662.97
2022-12-08T08:26:56.366Z,94665.00
2022-12-08T08:27:57.961Z,94667.81
2022-12-08T08:28:59.628Z,94668.34
2022-12-08T08:30:01.366Z,94670.22
2022-12-08T08:31:03.106Z,94673.00
2022-12-08T08:32:04.798Z,94662.75
2022-12-08T08:33:06.475Z,94665.75
2022-12-08T08:34:09.115Z,94664.66
2022-12-08T08:35:10.776Z,94663.75
2022-12-08T08:36:12.552Z,94662.63
2022-12-08T08:37:14.233Z,94664.88
2022-12-08T08:38:15.886Z,94665.06
2022-12-08T08:39:17.605Z,94668.06
2022-12-08T08:40:19.201Z,94662.47
2022-12-08T08:41:20.746Z,94659.31
2022-12-08T08:42:22.930Z,94662.09
2022-12-08T08:43:37.559Z,94661.00
2022-12-08T08:44:39.858Z,94658.94
2022-12-08T08:45:41.416Z,94668.28
2022-12-08T08:46:43.133Z,94648.50
2022-12-08T08:47:44.839Z,94646.44
2022-12-08T08:48:46.428Z,94653.72
2022-12-08T08:49:47.999Z,94662.31
2022-12-08T08:50:49.606Z,94664.91
2022-12-08T08:51:51.217Z,94665.66
2022-12-08T08:52:53.303Z,94655.22
2022-12-08T08:53:54.900Z,94660.81
2022-12-08T08:54:56.489Z,94651.13
2022-12-08T08:55:58.052Z,94654.13
2022-12-08T08:57:01.867Z,94644.22
2022-12-08T08:58:03.414Z,94644.63
2022-12-08T08:59:05.134Z,94633.22
2022-12-08T09:00:10.080Z,94636.22
2022-12-08T09:01:17.106Z,94647.97
2022-12-08T09:02:19.868Z,94651.53
2022-12-08T09:03:21.528Z,94653.00
2022-12-08T09:04:23.421Z,94642.75
2022-12-08T09:05:25.027Z,94646.09
2022-12-08T09:06:28.349Z,94645.56
2022-12-08T09:07:30.227Z,94647.06
2022-12-08T09:08:32.156Z,94654.88
2022-12-08T09:09:33.771Z,94652.06
2022-12-08T09:10:35.505Z,94649.28
2022-12-08T09:11:37.261Z,94638.84
2022-12-08T09:12:38.817Z,94639.78
2022-12-08T09:13:40.715Z,94639.78
2022-12-08T09:14:42.330Z,94631.38
2022-12-08T09:15:43.994Z,94633.25
2022-12-08T09:16:45.685Z,94638.84
2022-12-08T09:17:47.300Z,94632.50
2022-12-08T09:18:49.617Z,94631.38
2022-12-08T09:19:51.384Z,94635.50
2022-12-08T09:20:54.118Z,94640.00
2022-12-08T09:21:55.704Z,94631.78
2022-12-08T09:22:57.248Z,94636.25
2022-12-08T09:23:59.593Z,94630.84
2022-12-08T09:25:01.176Z,94628.03
2022-12-08T09:26:05.048Z,94633.09
2022-12-08T09:27:06.649Z,94631.25
2022-12-08T09:28:08.223Z,94638.13
2022-12-08T09:29:11.005Z,94634.78
2022-12-08T09:30:12.830Z,94638.50
2022-12-08T09:31:14.504Z,94631.78
2022-12-08T09:32:16.121Z,94634.41
2022-12-08T09:33:17.761Z,94636.06
2022-12-08T09:34:19.342Z,94626.19
2022-12-08T09:35:20.967Z,94627.31
2022-12-08T09:36:22.693Z,94621.72
2022-12-08T09:37:24.331Z,94620.59
2022-12-08T09:38:26.023Z,94622.09
2022-12-08T09:39:27.718Z,94618.00
2022-12-08T09:40:33.027Z,94619.50
2022-12-08T09:41:49.915Z,94614.25
2022-12-08T09:43:10.152Z,94611.63
2022-12-08T09:44:38.732Z,94609.41
2022-12-08T09:45:40.515Z,94618.00
2022-12-08T09:46:43.878Z,94615.19
2022-12-08T09:48:13.688Z,94614.25
2022-12-08T09:49:18.537Z,94618.00
2022-12-08T09:50:30.559Z,94612.03
2022-12-08T09:51:38.889Z,94608.09
2022-12-08T09:53:08.927Z,94609.41
2022-12-08T09:54:13.362Z,94610.56
2022-12-08T09:55:24.505Z,94606.03
2022-12-08T09:56:31.024Z,94602.69
2022-12-08T09:57:32.641Z,94601.22
2022-12-08T09:58:44.356Z,94593.72
2022-12-08T09:59:52.879Z,94598.41
2022-12-08T10:00:54.543Z,94592.59
2022-12-08T10:01:56.397Z,94590.38
2022-12-08T10:02:58.108Z,94590.75
2022-12-08T10:04:00.952Z,94588.50
2022-12-08T10:05:02.680Z,94581.41
2022-12-08T10:06:08.136Z,94584.78
2022-12-08T10:07:23.873Z,94581.03
2022-12-08T10:08:32.442Z,94581.22
2022-12-08T10:10:25.391Z,94578.44
2022-12-08T10:11:38.257Z,94574.50
2022-12-08T10:13:00.771Z,94575.63
2022-12-08T10:14:37.984Z,94574.69
2022-12-08T10:16:07.043Z,94571.31
2022-12-08T10:17:20.321Z,94574.31
2022-12-08T10:18:31.372Z,94571.69
2022-12-08T10:19:34.348Z,94573.22
2022-12-08T10:20:40.249Z,94573.22
2022-12-08T10:21:42.177Z,94571.91
2022-12-08T10:22:48.220Z,94574.13
2022-12-08T10:23:53.458Z,94567.25
2022-12-08T10:25:11.120Z,94569.09
2022-12-08T10:26:16.214Z,94559.78
2022-12-08T10:27:17.758Z,94559.03
2022-12-08T10:28:19.305Z,94559.03
2022-12-08T10:29:20.992Z,94572.47
2022-12-08T10:30:22.692Z,94559.78
2022-12-08T10:31:25.632Z,94557.16
2022-12-08T10:32:34.853Z,94559.78
2022-12-08T10:33:36.427Z,94551.94
2022-12-08T10:35:01.228Z,94557.53
2022-12-08T10:36:04.730Z,94553.06
2022-12-08T10:37:10.180Z,94556.44
2022-12-08T10:38:38.988Z,94554.53
2022-12-08T10:39:45.696Z,94558.66
2022-12-08T10:40:49.749Z,94550.84
2022-12-08T10:41:51.527Z,94551.38
2022-12-08T10:42:57.929Z,94544.09
2022-12-08T10:44:01.561Z,94550.84
2022-12-08T10:45:28.411Z,94546.72
2022-12-08T10:46:31.207Z,94544.09
2022-12-08T10:47:37.963Z,94542.59
2022-12-08T10:48:52.573Z,94544.66
2022-12-08T10:50:23.707Z,94539.63
2022-12-08T10:51:28.454Z,94526.56
2022-12-08T10:52:30.038Z,94531.63
2022-12-08T10:53:33.656Z,94523.22
2022-12-08T10:54:38.352Z,94528.06
2022-12-08T10:55:45.413Z,94532.91
2022-12-08T10:56:54.928Z,94534.03
2022-12-08T10:57:56.642Z,94532.91
2022-12-08T10:59:19.446Z,94531.78
2022-12-08T11:00:26.624Z,94525.81
2022-12-08T11:01:36.385Z,94525.81
2022-12-08T11:02:51.772Z,94515.75
2022-12-08T11:04:01.986Z,94520.22
2022-12-08T11:05:03.649Z,94514.63
2022-12-08T11:06:28.462Z,94514.25
2022-12-08T11:07:30.087Z,94516.13
2022-12-08T11:08:31.882Z,94521.72
2022-12-08T11:09:48.623Z,94517.06
2022-12-08T11:10:50.439Z,94520.22
2022-12-08T11:11:57.046Z,94519.47
2022-12-08T11:13:01.386Z,94517.25
2022-12-08T11:14:07.720Z,94509.22
2022-12-08T11:15:16.016Z,94516.88
2022-12-08T11:16:19.070Z,94507.34
2022-12-08T11:17:26.205Z,94506.06
2022-12-08T11:18:30.476Z,94493.38
2022-12-08T11:19:36.654Z,94494.88
2022-12-08T11:20:41.158Z,94483.47
2022-12-08T11:21:46.071Z,94493.38
2022-12-08T11:22:56.177Z,94490.19
2022-12-08T11:23:57.780Z,94488.34
2022-12-08T11:25:04.098Z,94489.66
2022-12-08T11:26:33.654Z,94489.28
2022-12-08T11:27:37.152Z,94480.88
2022-12-08T11:28:39.262Z,94496.34
2022-12-08T11:29:41.340Z,94487.75
2022-12-08T11:30:47.985Z,94484.78
2022-12-08T11:31:59.614Z,94484.59
2022-12-08T11:33:23.736Z,94480.31
2022-12-08T11:34:40.699Z,94485.91
2022-12-08T11:35:45.812Z,94485.53
2022-12-08T11:36:47.759Z,94489.28
2022-12-08T11:37:49.424Z,94480.88
2022-12-08T11:38:59.977Z,94482.38
2022-12-08T11:40:07.293Z,94487.75
2022-12-08T11:41:16.132Z,94496.34
2022-12-08T11:42:23.561Z,94494.13
2022-12-08T11:43:33.869Z,94494.88
2022-12-08T11:44:45.986Z,94489.28
2022-12-08T11:45:54.033Z,94486.66
2022-12-08T11:47:06.325Z,94485.34
2022-12-08T11:48:44.163Z,94478.09
2022-12-08T11:51:03.859Z,94481.06
2022-12-08T11:52:30.712Z,94474.72
2022-12-08T11:54:07.049Z,94471.34
2022-12-08T11:55:37.058Z,94473.41
2022-12-08T11:56:51.445Z,94468.75
2022-12-08T11:57:54.981Z,94464.81
2022-12-08T11:59:01.555Z,94466.16
2022-12-08T12:00:04.581Z,94471.75
2022-12-08T12:01:08.630Z,94468.94
2022-12-08T12:02:20.393Z,94474.16
2022-12-08T12:03:31.510Z,94469.84
2022-12-08T12:04:42.287Z,94472.84
2022-12-08T12:07:36.122Z,94470.97
2022-12-08T12:08:44.010Z,94473.97
2022-12-08T12:10:04.216Z,94469.09
2022-12-08T12:11:50.021Z,94474.34
2022-12-08T12:13:19.161Z,94465.00
2022-12-08T12:14:45.164Z,94472.13
2022-12-08T12:16:08.008Z,94459.97
2022-12-08T12:17:24.560Z,94467.25
2022-12-08T12:18:35.605Z,94469.47
2022-12-08T12:19:39.939Z,94473.22
2022-12-08T12:20:59.235Z,94465.94
2022-12-08T12:22:17.263Z,94468.75
2022-12-08T12:23:24.836Z,94466.69
2022-12-08T12:24:36.272Z,94470.22
2022-12-08T12:25:45.165Z,94473.22
2022-12-08T12:27:22.291Z,94464.63
2022-12-08T12:28:30.951Z,94462.41
2022-12-08T12:29:35.738Z,94454.16
2022-12-08T12:30:57.566Z,94459.75
2022-12-08T12:32:07.270Z,94447.28
2022-12-08T12:33:13.428Z,94454.16
2022-12-08T12:34:19.673Z,94451.19
2022-12-08T12:35:42.130Z,94454.94
2022-12-08T12:37:08.857Z,94460.53
2022-12-08T12:39:03.511Z,94455.31
2022-12-08T12:40:27.719Z,94451.75
2022-12-08T12:41:32.578Z,94447.84
2022-12-08T12:42:55.763Z,94445.44
2022-12-08T12:44:14.681Z,94445.78
2022-12-08T12:45:21.853Z,94450.25
2022-12-08T12:46:23.411Z,94447.84
2022-12-08T12:47:57.855Z,94457.56
2022-12-08T12:49:38.143Z,94459.97
2022-12-08T12:50:44.885Z,94453.06
2022-12-08T12:51:47.566Z,94451.19
2022-12-08T12:52:49.305Z,94446.72
2022-12-08T12:53:51.003Z,94449.34
2022-12-08T12:54:52.923Z,94449.34
2022-12-08T12:55:55.694Z,94457.91
2022-12-08T12:57:18.434Z,94443.38
2022-12-08T12:58:42.811Z,94445.25